Time;durP1;ratioP1;P1;durP2;ratioP2;P2;SDS_P1;SDS_P2;PMS_P1;PMS_P2;Temp;Humidity;BMP_temperature;BMP_pressure;BME280_temperature;BME280_humidity;BME280_pressure;Samples;Min_cycle;Max_cycle;Signal;HPM_P1;HPM_P2
2023/01/23 00:04:01;;;;;;;19.23;7.20;;;2.60;99.90;;;0.09;100.00;101039.66;10476651;28;20053;-86
2023/01/23 00:09:04;;;;;;;23.10;8.37;;;2.60;99.90;;;0.09;100.00;101043.09;10452061;28;20537;-86
2023/01/23 00:14:09;;;;;;;19.63;8.00;;;2.60;99.90;;;0.08;100.00;101046.66;10429667;28;20072;-86
2023/01/23 00:19:12;;;;;;;18.33;7.17;;;2.60;99.90;;;0.02;100.00;101036.53;10457922;28;20061;-86
2023/01/23 00:24:15;;;;;;;12.73;5.77;;;2.50;99.90;;;0.02;100.00;101031.28;10440851;28;20149;-86
2023/01/23 00:29:18;;;;;;;11.10;5.67;;;2.50;99.90;;;0.06;100.00;101026.72;10424709;28;20380;-86
2023/01/23 00:34:21;;;;;;;17.10;7.13;;;2.60;99.90;;;0.05;100.00;101020.66;10431834;28;20062;-86
2023/01/23 00:39:24;;;;;;;14.57;5.37;;;2.60;99.90;;;0.14;100.00;101027.19;10455826;28;20148;-86
2023/01/23 00:44:27;;;;;;;11.80;4.93;;;2.60;99.90;;;0.27;100.00;101015.16;10445621;28;20057;-86
2023/01/23 00:49:30;;;;;;;13.60;5.10;;;2.80;99.90;;;0.45;100.00;101019.38;10443226;28;20094;-86
2023/01/23 00:54:33;;;;;;;11.17;5.40;;;2.90;99.90;;;0.62;100.00;101020.25;10433561;28;20149;-86
2023/01/23 00:59:37;;;;;;;12.13;5.30;;;3.10;99.90;;;0.72;100.00;101024.03;10462718;28;20507;-86
2023/01/23 01:04:40;;;;;;;13.23;4.43;;;3.20;99.90;;;0.77;100.00;101012.38;10423516;28;20062;-85
2023/01/23 01:09:43;;;;;;;9.53;4.97;;;3.30;99.90;;;0.85;100.00;101014.59;10474902;28;20115;-86
2023/01/23 01:14:46;;;;;;;14.90;4.70;;;3.40;99.90;;;0.94;100.00;101024.53;10441224;28;20163;-85
2023/01/23 01:19:49;;;;;;;9.60;4.47;;;3.40;99.90;;;1.01;100.00;101028.47;10457082;28;20089;-85
2023/01/23 01:24:52;;;;;;;8.80;3.67;;;3.50;99.90;;;1.07;100.00;101020.28;10463405;28;20058;-86
2023/01/23 01:29:55;;;;;;;10.53;4.27;;;3.50;99.90;;;1.10;100.00;101019.28;10444620;28;20061;-86
2023/01/23 01:34:58;;;;;;;10.40;4.73;;;3.60;99.90;;;1.11;100.00;101013.13;10447246;28;20148;-86
2023/01/23 01:40:02;;;;;;;8.60;3.60;;;3.60;99.90;;;1.04;100.00;101011.78;10462127;28;20566;-85
2023/01/23 01:45:06;;;;;;;11.57;4.77;;;3.50;99.90;;;0.98;100.00;101009.50;10444298;28;20053;-85
2023/01/23 01:50:10;;;;;;;13.20;6.17;;;3.40;99.90;;;0.86;100.00;101003.19;10448156;28;20112;-85
2023/01/23 01:55:14;;;;;;;20.17;7.60;;;3.40;99.90;;;0.85;100.00;101000.66;10464268;28;20065;-85
2023/01/23 02:00:19;;;;;;;20.50;7.57;;;3.30;99.90;;;0.82;100.00;101003.44;10428528;28;20503;-85
2023/01/23 02:05:29;;;;;;;16.13;6.37;;;3.30;99.90;;;0.85;100.00;101005.91;10453781;28;20061;-84
2023/01/23 02:10:35;;;;;;;14.60;6.27;;;3.30;99.90;;;0.94;100.00;100997.53;10430733;28;20071;-86
2023/01/23 02:15:39;;;;;;;13.60;6.13;;;3.40;99.90;;;1.07;100.00;101008.97;10438548;28;20119;-86
2023/01/23 02:20:42;;;;;;;11.00;4.70;;;3.50;99.90;;;1.15;100.00;101001.53;10430983;28;20083;-86
2023/01/23 02:25:52;;;;;;;8.77;3.93;;;3.60;99.90;;;1.31;100.00;100998.88;10446024;28;20061;-86
2023/01/23 02:30:54;;;;;;;9.00;4.03;;;3.70;99.90;;;1.39;100.00;100990.59;10459399;28;20112;-86
2023/01/23 02:36:00;;;;;;;12.53;4.13;;;3.80;99.90;;;1.48;100.00;100984.78;10437875;28;20104;-86
2023/01/23 02:41:06;;;;;;;25.73;8.23;;;3.90;99.90;;;1.56;100.00;100993.03;10427637;28;20068;-85
2023/01/23 02:46:10;;;;;;;23.03;9.13;;;4.00;99.90;;;1.65;100.00;100986.41;10408498;28;20064;-86
2023/01/23 02:51:13;;;;;;;35.60;12.90;;;4.10;99.90;;;1.73;100.00;100982.38;10407054;28;20112;-86
2023/01/23 02:56:17;;;;;;;31.27;10.07;;;4.20;99.90;;;1.84;100.00;100984.38;10445024;28;20132;-86
2023/01/23 03:01:22;;;;;;;27.80;8.93;;;4.30;99.90;;;1.85;100.00;100972.94;10450355;28;20060;-86
2023/01/23 03:06:25;;;;;;;25.47;7.43;;;4.40;99.90;;;1.94;100.00;100966.31;10425273;28;20059;-85
2023/01/23 03:11:28;;;;;;;10.77;4.77;;;4.40;99.90;;;2.03;100.00;100957.88;10408838;28;20064;-86
2023/01/23 03:16:33;;;;;;;10.13;4.43;;;4.50;99.90;;;2.14;100.00;100953.66;10429900;28;20096;-86
2023/01/23 03:21:40;;;;;;;9.73;3.77;;;4.60;99.90;;;2.19;100.00;100945.50;10428060;28;20148;-86
2023/01/23 03:26:46;;;;;;;10.67;3.27;;;4.60;99.90;;;2.38;100.00;100939.94;10442754;28;20069;-86
2023/01/23 03:31:49;;;;;;;7.43;3.83;;;4.70;99.90;;;2.51;100.00;100934.75;10423659;28;20149;-85
2023/01/23 03:36:52;;;;;;;9.83;4.60;;;4.90;99.90;;;2.56;100.00;100932.69;10427690;28;20061;-85
2023/01/23 03:41:55;;;;;;;26.40;8.43;;;5.00;99.90;;;2.55;100.00;100942.34;10460049;28;20069;-85
2023/01/23 03:46:58;;;;;;;15.17;6.13;;;5.00;99.90;;;2.51;100.00;100929.50;10440684;28;20053;-85
2023/01/23 03:52:02;;;;;;;12.27;5.07;;;4.90;99.90;;;2.51;100.00;100938.22;10440023;28;20112;-85
2023/01/23 03:57:05;;;;;;;19.70;7.17;;;4.90;99.90;;;2.48;100.00;100937.59;10439004;28;20164;-85
2023/01/23 04:02:09;;;;;;;7.10;3.50;;;4.90;99.90;;;2.57;100.00;100947.47;10459021;28;20066;-85
2023/01/23 04:07:13;;;;;;;11.53;4.97;;;4.90;99.90;;;2.63;100.00;100936.59;10453427;28;20106;-86
2023/01/23 04:12:16;;;;;;;10.87;4.90;;;5.00;99.90;;;2.66;100.00;100934.63;10421238;28;20064;-86
2023/01/23 04:17:19;;;;;;;12.50;5.87;;;5.10;99.90;;;2.61;100.00;100927.97;10474466;28;20063;-87
2023/01/23 04:22:22;;;;;;;16.30;6.60;;;5.00;99.90;;;2.58;100.00;100938.66;10459057;28;20062;-86
2023/01/23 04:27:24;;;;;;;13.07;6.00;;;5.00;99.90;;;2.54;100.00;100939.81;10459789;28;20144;-87
2023/01/23 04:32:27;;;;;;;14.77;6.47;;;5.00;99.90;;;2.49;100.00;100942.72;10440158;28;20085;-85
2023/01/23 04:37:31;;;;;;;8.97;4.23;;;4.90;99.90;;;2.46;100.00;100935.06;10458766;28;20147;-85
2023/01/23 04:42:34;;;;;;;7.57;4.00;;;4.90;99.90;;;2.47;100.00;100944.63;10431833;28;20137;-85
2023/01/23 04:47:37;;;;;;;6.83;2.93;;;4.90;99.90;;;2.47;100.00;100943.78;10423784;28;20062;-86
2023/01/23 04:52:40;;;;;;;6.37;3.33;;;4.90;99.90;;;2.47;100.00;100949.88;10405733;28;20076;-86
2023/01/23 04:57:43;;;;;;;7.90;3.80;;;4.80;99.90;;;2.54;100.00;100942.44;10448885;28;20061;-86
2023/01/23 05:02:48;;;;;;;6.93;3.83;;;4.90;99.90;;;2.58;100.00;100955.28;10451974;28;20062;-86
2023/01/23 05:07:51;;;;;;;7.37;3.70;;;5.00;99.90;;;2.56;100.00;100956.28;10434607;28;20057;-85
2023/01/23 05:12:54;;;;;;;11.57;4.33;;;5.00;99.90;;;2.55;100.00;100972.97;10448306;28;20152;-86
2023/01/23 05:17:57;;;;;;;6.97;3.40;;;5.00;99.90;;;2.53;100.00;100983.56;10428843;28;20058;-85
2023/01/23 05:23:00;;;;;;;11.20;4.83;;;4.90;99.90;;;2.54;100.00;100982.63;10479117;28;20148;-86
2023/01/23 05:28:03;;;;;;;8.87;4.77;;;5.00;99.90;;;2.49;100.00;100989.94;10448490;28;20115;-85
2023/01/23 05:33:06;;;;;;;8.03;4.03;;;4.90;99.90;;;2.39;100.00;100989.66;10478851;28;20172;-84
2023/01/23 05:38:11;;;;;;;8.07;4.13;;;4.80;99.90;;;2.32;100.00;100984.91;10447699;28;20057;-85
2023/01/23 05:43:15;;;;;;;11.00;5.03;;;4.80;99.90;;;2.23;100.00;100983.72;10465177;28;20064;-85
2023/01/23 05:48:17;;;;;;;10.03;4.50;;;4.70;99.90;;;2.17;100.00;100991.97;10432242;28;20574;-85
2023/01/23 05:53:20;;;;;;;8.77;4.80;;;4.60;99.90;;;2.13;100.00;100993.09;10463237;28;20057;-84
2023/01/23 05:58:23;;;;;;;9.63;5.17;;;4.60;99.90;;;2.09;100.00;101013.38;10472812;28;20067;-85
2023/01/23 06:03:26;;;;;;;6.37;3.70;;;4.50;99.90;;;2.09;100.00;101012.56;10476852;28;20061;-85
2023/01/23 06:08:30;;;;;;;7.13;3.53;;;4.50;99.90;;;2.14;100.00;101020.97;10455049;28;20061;-86
2023/01/23 06:13:32;;;;;;;7.17;3.37;;;4.60;99.90;;;2.22;100.00;101017.88;10464119;28;20058;-86
2023/01/23 06:18:35;;;;;;;4.80;2.83;;;4.60;99.90;;;2.30;100.00;101020.91;10448450;28;20149;-86
2023/01/23 06:23:38;;;;;;;7.67;3.67;;;4.70;99.90;;;2.33;100.00;101021.53;10476468;28;20066;-81
2023/01/23 06:28:41;;;;;;;5.90;3.17;;;4.80;99.90;;;2.36;100.00;101031.84;10439159;28;20061;-82
2023/01/23 06:33:52;;;;;;;6.93;3.30;;;4.80;99.90;;;2.36;100.00;101041.50;10457614;28;20058;-82
2023/01/23 06:38:56;;;;;;;6.60;3.10;;;4.80;99.90;;;2.34;100.00;101046.84;10443177;28;20112;-81
2023/01/23 06:43:59;;;;;;;7.70;3.47;;;4.80;99.90;;;2.32;100.00;101042.63;10445838;28;20057;-80
2023/01/23 06:49:04;;;;;;;7.77;4.30;;;4.80;99.90;;;2.33;100.00;101055.63;10499341;28;20099;-81
2023/01/23 06:54:08;;;;;;;10.67;5.20;;;4.80;99.90;;;2.43;100.00;101061.16;10446552;28;20058;-82
2023/01/23 06:59:11;;;;;;;9.30;5.57;;;4.80;99.90;;;2.52;100.00;101064.97;10445953;28;20092;-82
2023/01/23 07:04:14;;;;;;;12.27;5.97;;;4.90;99.90;;;2.61;100.00;101061.81;10461332;28;20057;-82
2023/01/23 07:09:17;;;;;;;11.17;5.20;;;5.00;99.90;;;2.70;100.00;101061.25;10445008;28;20057;-82
2023/01/23 07:14:21;;;;;;;12.63;5.73;;;5.10;99.90;;;2.81;100.00;101064.00;10443110;28;20061;-82
2023/01/23 07:19:24;;;;;;;10.87;5.40;;;5.20;99.90;;;2.92;100.00;101071.22;10445276;28;20057;-82
2023/01/23 07:24:31;;;;;;;14.27;7.33;;;5.30;99.90;;;3.11;100.00;101082.22;10444874;28;20057;-82
2023/01/23 07:29:34;;;;;;;19.30;9.20;;;5.40;99.90;;;3.37;100.00;101085.81;10444778;28;20089;-82
2023/01/23 07:34:37;;;;;;;15.13;7.37;;;5.60;99.90;;;3.57;100.00;101081.03;10414951;28;20145;-82
2023/01/23 07:39:40;;;;;;;15.30;7.40;;;5.80;99.90;;;3.78;100.00;101081.38;10444750;28;20116;-82
2023/01/23 07:44:43;;;;;;;14.70;7.50;;;6.10;99.90;;;3.96;100.00;101085.41;10407255;28;20061;-82
2023/01/23 07:49:47;;;;;;;10.00;5.70;;;6.30;99.90;;;4.18;100.00;101090.03;10436364;28;20060;-82
2023/01/23 07:54:50;;;;;;;8.13;5.30;;;6.50;99.90;;;4.57;100.00;101102.25;10468551;28;20061;-82
2023/01/23 07:59:53;;;;;;;10.80;5.20;;;6.80;99.90;;;4.84;100.00;101088.91;10444653;28;20530;-82
2023/01/23 08:04:56;;;;;;;8.20;4.17;;;7.00;99.90;;;5.14;100.00;101104.31;10444962;28;20061;-82
2023/01/23 08:09:59;;;;;;;6.57;3.97;;;7.30;99.90;;;5.42;100.00;101097.88;10444190;28;20092;-82
2023/01/23 08:15:02;;;;;;;9.60;5.30;;;7.60;99.90;;;5.99;100.00;101083.94;10459472;28;20057;-82
2023/01/23 08:20:06;;;;;;;6.30;3.67;;;8.00;99.90;;;6.53;100.00;101082.44;10443720;28;20069;-82
2023/01/23 08:25:10;;;;;;;7.63;4.30;;;8.50;99.90;;;6.98;100.00;101081.44;10439755;28;20058;-80
2023/01/23 08:30:13;;;;;;;5.57;3.33;;;9.00;99.90;;;7.31;100.00;101084.13;10457056;28;20111;-80
2023/01/23 08:35:16;;;;;;;6.10;3.23;;;9.40;99.90;;;7.45;100.00;101078.56;10475778;28;20066;-80
2023/01/23 08:40:19;;;;;;;6.70;3.30;;;9.60;99.90;;;7.50;100.00;101089.59;10458994;28;20062;-80
2023/01/23 08:45:24;;;;;;;4.27;2.47;;;9.70;99.90;;;7.71;100.00;101086.97;10493105;28;20092;-80
2023/01/23 08:50:27;;;;;;;4.57;2.70;;;9.80;99.90;;;8.05;100.00;101092.94;10490705;28;20139;-79
2023/01/23 08:55:31;;;;;;;8.47;3.77;;;10.10;99.90;;;8.49;100.00;101097.09;10452632;28;20068;-78
2023/01/23 09:00:35;;;;;;;5.30;3.17;;;10.60;99.90;;;8.88;100.00;101107.03;10472564;28;20558;-78
2023/01/23 09:05:38;;;;;;;6.57;3.50;;;11.00;99.90;;;9.09;100.00;101098.00;10475438;28;20431;-78
2023/01/23 09:10:41;;;;;;;4.33;2.37;;;11.30;99.90;;;9.08;99.09;101093.69;10457657;28;20054;-77
2023/01/23 09:15:45;;;;;;;4.70;2.23;;;11.40;99.90;;;9.02;97.92;101096.88;10459851;28;20515;-78
2023/01/23 09:20:48;;;;;;;7.60;4.50;;;11.40;99.90;;;8.83;96.72;101096.81;10425914;28;20467;-77
2023/01/23 09:25:51;;;;;;;5.00;2.83;;;11.20;99.90;;;8.61;93.66;101094.38;10382138;28;20062;-78
2023/01/23 09:30:54;;;;;;;6.30;4.23;;;11.00;99.90;;;8.47;92.38;101091.09;10450117;28;20066;-80
2023/01/23 09:35:57;;;;;;;4.20;2.60;;;10.90;99.90;;;8.39;91.83;101084.78;10403043;28;20109;-78
2023/01/23 09:41:16;;;;;;;7.70;4.73;;;10.80;99.90;;;8.25;91.46;101083.28;10475995;28;20057;-77
2023/01/23 09:46:32;;;;;;;5.27;3.13;;;10.70;99.90;;;8.17;90.99;101091.06;10448879;28;20061;-78
2023/01/23 09:51:44;;;;;;;4.70;3.17;;;10.60;99.90;;;8.15;90.61;101077.94;10465699;28;20057;-80
2023/01/23 09:56:49;;;;;;;5.13;2.40;;;10.60;99.90;;;8.26;90.54;101084.97;10496323;28;20065;-78
2023/01/23 10:01:52;;;;;;;4.50;2.67;;;10.70;99.90;;;8.45;90.33;101086.91;10446525;28;20111;-78
2023/01/23 10:07:48;;;;;;;4.80;2.07;;;10.90;99.90;;;8.62;90.16;101088.09;10447582;28;20519;-78
2023/01/23 10:13:13;;;;;;;5.60;2.37;;;11.00;99.90;;;8.70;90.28;101077.69;10422039;28;20061;-78
2023/01/23 10:18:57;;;;;;;4.80;2.23;;;11.20;99.90;;;8.79;89.33;101074.22;10432982;28;20076;-79
2023/01/23 10:24:12;;;;;;;;;;;11.30;99.90;;;8.99;88.84;101075.09;10498243;28;20058;-78
2023/01/23 10:29:42;;;;;;;8.03;4.03;;;11.40;99.90;;;9.42;88.06;101071.25;10463523;28;20012;-78
2023/01/23 10:35:04;;;;;;;4.30;2.90;;;11.90;99.90;;;10.14;87.23;101068.94;10449891;28;20065;-78
2023/01/23 10:45:43;;;;;;;4.55;2.17;;;13.60;99.90;;;11.07;81.56;101072.47;10481590;28;20203;-78
2023/01/23 10:50:56;;;;;;;6.00;3.30;;;13.80;99.90;;;10.97;79.07;101069.88;10446029;28;20177;-79
2023/01/23 10:55:59;;;;;;;4.22;2.47;;;13.70;99.90;;;10.96;78.97;101064.69;10444370;28;20117;-79
2023/01/23 11:01:04;;;;;;;4.43;2.83;;;13.70;99.90;;;11.34;77.77;101063.63;10428932;28;20499;-78
2023/01/23 11:06:16;;;;;;;3.50;2.13;;;14.10;99.90;;;11.92;76.47;101041.81;10479094;28;20115;-78
2023/01/23 11:11:31;;;;;;;3.65;2.13;;;14.80;99.90;;;12.18;74.70;101046.31;10462449;28;20065;-78
2023/01/23 11:16:35;;;;;;;3.38;1.88;;;15.00;99.90;;;12.37;73.08;101040.75;10415394;28;20065;-79
2023/01/23 11:21:49;;;;;;;3.63;2.30;;;15.20;99.90;;;12.28;71.56;101033.69;10446208;28;20056;-78
2023/01/23 11:27:13;;;;;;;3.78;2.22;;;15.10;99.90;;;11.88;69.56;101029.81;10446663;28;20149;-78
2023/01/23 11:32:16;;;;;;;4.50;2.40;;;14.80;99.90;;;11.49;70.30;101023.97;10494144;28;20062;-79
2023/01/23 11:37:37;;;;;;;3.53;2.00;;;14.20;99.90;;;11.10;70.77;101034.09;10403551;28;20065;-79
2023/01/23 11:42:42;;;;;;;4.07;2.25;;;13.70;99.90;;;10.76;72.18;101026.75;10485156;28;20062;-79
2023/01/23 11:48:03;;;;;;;4.57;2.40;;;13.30;99.90;;;10.55;72.01;101024.34;10473218;28;20061;-79
2023/01/23 11:53:47;;;;;;;4.63;2.00;;;13.00;99.90;;;10.35;73.54;101020.94;10435963;28;20057;-78
2023/01/23 11:59:18;;;;;;;5.27;2.53;;;12.80;99.90;;;10.19;73.58;101023.34;10435272;28;20066;-79
2023/01/23 12:04:42;;;;;;;5.55;2.75;;;12.60;99.90;;;10.09;74.62;101019.91;10461342;28;20147;-78
2023/01/23 12:09:57;;;;;;;4.73;2.30;;;12.40;99.90;;;10.01;74.55;101017.09;10462332;28;20062;-79
2023/01/23 12:15:59;;;;;;;4.00;2.20;;;12.40;99.90;;;9.90;74.85;101007.50;10468002;28;20058;-79
2023/01/23 12:21:24;;;;;;;3.83;2.20;;;12.30;99.90;;;9.80;75.70;101007.53;10477418;28;20060;-78
2023/01/23 12:26:30;;;;;;;4.17;2.37;;;12.20;99.90;;;9.74;75.88;101008.09;10475301;28;20057;-78
2023/01/23 12:32:00;;;;;;;5.33;2.70;;;12.10;99.90;;;9.70;76.87;101011.16;10443038;28;20121;-79
2023/01/23 12:37:24;;;;;;;6.93;3.53;;;12.10;99.90;;;9.68;77.22;101019.28;10459590;28;20503;-79
2023/01/23 12:43:03;;;;;;;6.20;3.20;;;12.00;99.90;;;9.69;76.99;101010.34;10426471;28;20068;-79
2023/01/23 12:48:23;;;;;;;6.77;2.30;;;12.10;99.90;;;9.69;77.30;101012.16;10420967;28;20145;-78
2023/01/23 12:53:31;;;;;;;7.03;2.70;;;12.00;99.90;;;9.69;76.37;101007.69;10427425;28;20057;-79
2023/01/23 12:58:40;;;;;;;6.90;2.77;;;12.00;99.90;;;9.70;75.75;101008.53;10427098;28;20168;-78
2023/01/23 13:04:11;;;;;;;5.20;2.70;;;12.10;99.90;;;9.67;76.47;101012.31;10458256;28;20061;-78
2023/01/23 13:10:01;;;;;;;5.47;2.60;;;12.00;99.90;;;9.60;77.02;101004.09;10427211;28;20116;-78
2023/01/23 13:15:16;;;;;;;8.27;3.70;;;12.00;99.90;;;9.53;76.76;101012.72;10417693;28;20173;-80
2023/01/23 13:26:18;;;;;;;8.10;3.67;;;11.80;99.90;;;9.42;77.36;101012.91;10456103;28;20091;-78
2023/01/23 13:31:33;;;;;;;6.43;3.17;;;11.80;99.90;;;9.38;76.95;101018.47;10466155;28;20537;-78
2023/01/23 13:36:37;;;;;;;6.73;4.13;;;11.70;99.90;;;9.35;76.69;101018.72;10465323;28;20530;-78
2023/01/23 13:41:40;;;;;;;7.47;5.07;;;11.70;99.90;;;9.36;76.72;101030.22;10407665;28;20066;-78
2023/01/23 13:49:49;;;;;;;6.03;3.50;;;11.70;99.90;;;9.32;77.42;101037.59;10423567;28;20089;-78
2023/01/23 13:58:34;;;;;;;4.80;2.60;;;11.60;99.90;;;9.13;77.93;101034.94;10321258;28;20394;-78
2023/01/23 14:09:34;;;;;;;5.50;2.40;;;11.40;99.90;;;8.91;79.02;101041.31;10081593;29;20534;-78
2023/01/23 14:20:26;;;;;;;7.10;2.90;;;11.20;99.90;;;8.70;79.72;101044.06;9981044;29;20069;-77
2023/01/23 14:25:30;;;;;;;11.80;5.50;;;11.10;99.90;;;8.59;80.43;101052.13;10137186;29;20068;-78
2023/01/23 14:30:33;;;;;;;16.20;7.10;;;11.00;99.90;;;8.50;81.19;101053.75;10202151;28;20142;-77
2023/01/23 14:35:38;;;;;;;17.13;7.07;;;10.90;99.90;;;8.38;81.44;101048.66;10306792;28;20077;-78
2023/01/23 14:40:42;;;;;;;13.23;6.13;;;10.80;99.90;;;8.28;81.81;101046.81;10446566;28;20057;-78
2023/01/23 14:46:19;;;;;;;10.60;5.40;;;10.70;99.90;;;8.16;82.34;101053.16;10478670;28;20057;-78
2023/01/23 14:51:26;;;;;;;12.73;5.60;;;10.60;99.90;;;8.02;82.80;101056.13;10497015;28;20507;-78
2023/01/23 14:56:35;;;;;;;11.70;6.27;;;10.40;99.90;;;7.89;83.48;101060.78;10495975;28;20111;-78
2023/01/23 15:01:38;;;;;;;15.47;6.47;;;10.30;99.90;;;7.77;83.68;101066.13;10446472;28;20065;-78
2023/01/23 15:06:41;;;;;;;9.20;4.30;;;10.20;99.90;;;7.66;84.11;101066.19;10474187;28;20064;-78
2023/01/23 15:11:46;;;;;;;8.70;3.90;;;10.10;99.90;;;7.56;84.52;101078.53;10458651;28;20049;-78
2023/01/23 15:16:51;;;;;;;6.00;3.17;;;10.00;99.90;;;7.43;85.48;101075.19;10459507;28;20057;-78
2023/01/23 15:22:16;;;;;;;7.53;3.70;;;9.80;99.90;;;7.31;86.24;101076.19;10478998;28;20084;-76
2023/01/23 15:27:23;;;;;;;13.90;6.67;;;9.70;99.90;;;7.17;86.95;101078.16;10444264;28;20060;-78
2023/01/23 15:32:26;;;;;;;17.10;6.97;;;9.60;99.90;;;7.05;87.41;101078.31;10478520;28;20053;-78
2023/01/23 15:37:29;;;;;;;20.80;10.13;;;9.40;99.90;;;6.85;87.69;101074.63;10473565;28;20057;-78
2023/01/23 15:42:34;;;;;;;29.47;11.07;;;9.30;99.90;;;6.65;88.38;101071.75;10455629;28;20155;-77
2023/01/23 15:47:37;;;;;;;121.37;39.30;;;9.10;99.90;;;6.49;89.10;101081.03;10458170;28;20065;-78
2023/01/23 15:52:49;;;;;;;101.07;35.50;;;8.90;99.90;;;6.30;89.65;101087.75;10495037;28;20211;-78
2023/01/23 15:57:54;;;;;;;59.77;23.03;;;8.70;99.90;;;6.19;90.34;101092.16;10460772;28;20586;-78
2023/01/23 16:02:58;;;;;;;47.63;20.10;;;8.60;99.90;;;6.07;90.98;101092.13;10461865;28;20062;-78
2023/01/23 16:08:03;;;;;;;45.57;18.50;;;8.50;99.90;;;6.00;91.30;101104.13;10476523;28;20068;-78
2023/01/23 16:13:06;;;;;;;35.43;16.00;;;8.40;99.90;;;5.94;92.30;101106.34;10445145;28;20062;-78
2023/01/23 16:18:09;;;;;;;29.27;13.40;;;8.30;99.90;;;5.84;92.64;101111.47;10443612;28;20515;-79
2023/01/23 16:23:23;;;;;;;26.53;13.23;;;8.20;99.90;;;5.75;93.24;101114.78;10426194;28;20450;-78
2023/01/23 16:28:26;;;;;;;28.07;13.37;;;8.10;99.90;;;5.64;93.58;101112.97;10422728;28;20108;-78
2023/01/23 16:33:29;;;;;;;27.97;14.57;;;8.00;99.90;;;5.55;94.29;101119.75;10445948;28;20426;-79
2023/01/23 16:38:32;;;;;;;18.67;9.93;;;7.90;99.90;;;5.46;94.70;101123.06;10426167;28;20053;-79
2023/01/23 16:43:35;;;;;;;21.37;9.93;;;7.80;99.90;;;5.40;95.22;101131.44;10423175;28;20085;-78
2023/01/23 16:48:39;;;;;;;17.73;8.47;;;7.70;99.90;;;5.35;95.71;101133.56;10439222;28;20136;-79
2023/01/23 16:53:48;;;;;;;19.57;10.40;;;7.70;99.90;;;5.26;96.04;101142.94;10457912;28;20140;-79
2023/01/23 16:58:51;;;;;;;19.93;10.83;;;7.60;99.90;;;5.18;96.45;101142.66;10439772;28;20145;-78
2023/01/23 17:03:58;;;;;;;37.40;16.03;;;7.50;99.90;;;5.13;97.02;101150.06;10493466;28;20422;-78
2023/01/23 17:09:01;;;;;;;27.37;12.83;;;7.50;99.90;;;5.13;97.55;101147.41;10444765;28;20057;-78
2023/01/23 17:14:23;;;;;;;30.23;13.00;;;7.50;99.90;;;5.16;97.92;101157.75;10435447;28;20053;-78
2023/01/23 17:19:34;;;;;;;20.40;10.77;;;7.50;99.90;;;5.15;98.12;101152.56;10448605;28;20061;-79
2023/01/23 17:24:38;;;;;;;21.13;11.27;;;7.50;99.90;;;5.15;98.47;101152.56;10458664;28;20463;-79
2023/01/23 17:29:41;;;;;;;16.70;9.03;;;7.50;99.90;;;5.14;98.79;101149.09;10442445;28;20067;-78
2023/01/23 17:34:44;;;;;;;19.43;8.93;;;7.50;99.90;;;5.13;99.21;101159.75;10456624;28;20056;-78
2023/01/23 17:39:52;;;;;;;17.20;8.63;;;7.60;99.90;;;5.11;99.55;101159.88;10458591;28;20061;-78
2023/01/23 17:44:55;;;;;;;18.17;9.37;;;7.50;99.90;;;5.12;99.74;101172.09;10425932;28;20072;-78
2023/01/23 17:50:00;;;;;;;18.47;9.60;;;7.50;99.90;;;5.12;99.87;101168.63;10473720;28;20129;-78
2023/01/23 17:55:04;;;;;;;61.33;19.70;;;7.50;99.90;;;5.07;100.00;101171.56;10418182;28;20062;-78
2023/01/23 18:00:11;;;;;;;53.07;20.60;;;7.50;99.90;;;5.01;100.00;101177.28;10429681;28;20065;-80
2023/01/23 18:05:14;;;;;;;49.23;22.40;;;7.40;99.90;;;4.93;100.00;101176.97;10482662;28;20518;-78
2023/01/23 18:10:19;;;;;;;29.97;14.73;;;7.30;99.90;;;4.83;100.00;101174.97;10449148;28;20062;-78
2023/01/23 18:15:38;;;;;;;21.43;10.30;;;7.20;99.90;;;4.77;100.00;101187.72;10465276;28;20053;-79
2023/01/23 18:20:42;;;;;;;21.93;10.70;;;7.20;99.90;;;4.78;100.00;101184.97;10466378;28;20066;-79
2023/01/23 18:25:45;;;;;;;15.33;7.70;;;7.20;99.90;;;4.79;100.00;101181.41;10431659;28;20058;-80
2023/01/23 18:31:08;;;;;;;17.60;8.87;;;7.20;99.90;;;4.79;100.00;101185.81;10446592;28;20669;-81
2023/01/23 18:36:52;;;;;;;19.23;9.57;;;7.20;99.90;;;4.86;100.00;101181.84;10459983;28;20062;-84
2023/01/23 18:42:22;;;;;;;28.77;12.27;;;7.20;99.90;;;4.90;100.00;101193.81;10464965;28;20423;-85
2023/01/23 18:47:26;;;;;;;35.03;13.83;;;7.30;99.90;;;4.89;100.00;101181.59;10458100;28;20065;-84
2023/01/23 18:52:50;;;;;;;33.87;13.57;;;7.30;99.90;;;4.88;100.00;101189.63;10436989;28;20141;-80
2023/01/23 18:58:24;;;;;;;22.83;10.80;;;7.30;99.90;;;4.83;100.00;101184.66;10432437;28;20057;-80
2023/01/23 19:03:41;;;;;;;21.87;9.67;;;7.30;99.90;;;4.78;100.00;101194.69;10451175;28;20088;-80
2023/01/23 19:08:46;;;;;;;16.40;7.73;;;7.20;99.90;;;4.72;100.00;101189.84;10428573;28;20057;-80
2023/01/23 19:14:19;;;;;;;18.00;8.37;;;7.10;99.90;;;4.70;100.00;101199.66;10504069;28;20057;-79
2023/01/23 19:19:46;;;;;;;18.23;8.77;;;7.10;99.90;;;4.66;100.00;101195.53;10462023;28;20061;-79
2023/01/23 19:24:49;;;;;;;23.37;11.53;;;7.00;99.90;;;4.65;100.00;101193.84;10427000;28;20508;-79
2023/01/23 19:29:52;;;;;;;26.23;10.27;;;7.00;99.90;;;4.63;100.00;101196.59;10453294;28;20062;-78
2023/01/23 19:34:55;;;;;;;25.87;11.17;;;7.00;99.90;;;4.62;100.00;101199.31;10421998;28;20058;-80
2023/01/23 19:40:15;;;;;;;21.43;8.93;;;7.00;99.90;;;4.64;100.00;101207.97;10441254;28;20057;-77
2023/01/23 19:45:19;;;;;;;23.40;9.03;;;7.00;99.90;;;4.62;100.00;101213.34;10457955;28;20061;-77
2023/01/23 19:50:22;;;;;;;14.67;7.80;;;7.00;99.90;;;4.62;100.00;101204.56;10476671;28;20140;-78
2023/01/23 19:55:29;;;;;;;17.30;8.77;;;7.00;99.90;;;4.59;100.00;101216.16;10492285;28;20467;-78
2023/01/23 20:00:37;;;;;;;12.70;6.83;;;7.00;99.90;;;4.52;100.00;101218.38;10442874;28;20076;-78
2023/01/23 20:05:40;;;;;;;9.70;5.70;;;6.90;99.90;;;4.42;100.00;101209.41;10428247;28;20503;-79
2023/01/23 20:10:43;;;;;;;10.37;5.30;;;6.80;99.90;;;4.31;100.00;101217.19;10432141;28;20136;-79
2023/01/23 20:15:49;;;;;;;9.63;4.90;;;6.70;99.90;;;4.23;100.00;101219.50;10493928;28;20144;-78
2023/01/23 20:20:58;;;;;;;7.90;3.87;;;6.60;99.90;;;4.14;100.00;101235.88;10464625;28;20140;-80
2023/01/23 20:26:01;;;;;;;7.80;4.60;;;6.60;99.90;;;4.05;100.00;101236.50;10459743;28;20059;-78
2023/01/23 20:31:11;;;;;;;6.67;4.00;;;6.50;99.90;;;3.96;100.00;101248.47;10458426;28;20411;-77
2023/01/23 20:36:15;;;;;;;14.40;9.03;;;6.40;99.90;;;3.90;100.00;101244.44;10433901;28;20115;-77
2023/01/23 20:41:19;;;;;;;13.50;7.00;;;6.30;99.90;;;3.85;100.00;101256.19;10468266;28;20414;-78
2023/01/23 20:46:22;;;;;;;10.00;5.27;;;6.30;99.90;;;3.76;100.00;101255.84;10425418;28;20140;-78
2023/01/23 20:51:26;;;;;;;9.33;5.10;;;6.20;99.90;;;3.67;100.00;101259.06;10423892;28;20061;-78
2023/01/23 20:56:29;;;;;;;8.47;4.27;;;6.10;99.90;;;3.60;100.00;101264.78;10408494;28;20060;-78
2023/01/23 21:06:58;;;;;;;16.90;7.23;;;5.90;99.90;;;3.43;100.00;101279.00;10448265;28;20054;-78
2023/01/23 21:12:01;;;;;;;45.60;16.70;;;5.80;99.90;;;3.35;100.00;101279.47;10440917;28;20062;-78
2023/01/23 21:17:05;;;;;;;24.53;10.50;;;5.80;99.90;;;3.29;100.00;101286.88;10422997;28;20078;-78
2023/01/23 21:22:09;;;;;;;20.60;9.23;;;5.70;99.90;;;3.22;100.00;101289.03;10441168;28;20069;-78
2023/01/23 21:27:12;;;;;;;26.10;11.37;;;5.60;99.90;;;3.13;100.00;101300.97;10423689;28;20093;-78
2023/01/23 21:32:15;;;;;;;20.80;9.43;;;5.50;99.90;;;3.07;100.00;101313.63;10453761;28;20085;-78
2023/01/23 21:37:19;;;;;;;17.10;8.00;;;5.50;99.90;;;3.01;100.00;101296.47;10434914;28;20414;-78
2023/01/23 21:42:22;;;;;;;14.20;7.33;;;5.40;99.90;;;2.93;100.00;101303.94;10448971;28;20140;-78
2023/01/23 21:47:25;;;;;;;12.63;6.20;;;5.30;99.90;;;2.86;100.00;101308.72;10478567;28;20058;-77